createdAt,value
2023-01-11T00:01:04.892Z,8.68
2023-01-11T00:03:32.040Z,8.70
2023-01-11T00:05:59.113Z,8.72
2023-01-11T00:08:27.245Z,8.75
2023-01-11T00:10:54.994Z,8.79
2023-01-11T00:13:21.620Z,8.79
2023-01-11T00:15:48.514Z,8.83
2023-01-11T00:18:15.150Z,8.86
2023-01-11T00:20:42.216Z,8.89
2023-01-11T00:23:09.171Z,8.91
2023-01-11T00:25:36.756Z,8.96
2023-01-11T00:28:03.935Z,8.97
2023-01-11T00:30:30.505Z,9.00
2023-01-11T00:32:58.870Z,9.03
2023-01-11T00:35:27.588Z,9.05
2023-01-11T00:37:55.648Z,9.03
2023-01-11T00:40:24.264Z,9.09
2023-01-11T00:43:10.842Z,9.10
2023-01-11T00:45:56.439Z,9.14
2023-01-11T00:48:23.306Z,9.14
2023-01-11T00:50:55.216Z,9.16
2023-01-11T00:53:22.607Z,9.18
2023-01-11T00:55:49.360Z,9.20
2023-01-11T00:58:16.543Z,9.20
2023-01-11T01:00:44.426Z,9.19
2023-01-11T01:03:10.897Z,9.23
2023-01-11T01:05:41.831Z,9.25
2023-01-11T01:08:08.764Z,9.25
2023-01-11T01:10:35.924Z,9.26
2023-01-11T01:13:21.079Z,9.30
2023-01-11T01:15:47.841Z,9.31
2023-01-11T01:18:14.323Z,9.34
2023-01-11T01:20:40.975Z,9.35
2023-01-11T01:23:07.812Z,9.37
2023-01-11T01:25:36.762Z,9.38
2023-01-11T01:28:03.318Z,9.38
2023-01-11T01:30:29.770Z,9.42
2023-01-11T01:32:56.436Z,9.44
2023-01-11T01:35:22.851Z,9.45
2023-01-11T01:37:49.359Z,9.44
2023-01-11T01:40:16.099Z,9.47
2023-01-11T01:42:42.930Z,9.48
2023-01-11T01:45:24.492Z,9.51
2023-01-11T01:47:58.224Z,9.52
2023-01-11T01:50:49.097Z,9.54
2023-01-11T01:53:24.329Z,9.54
2023-01-11T01:55:54.921Z,9.56
2023-01-11T01:58:27.187Z,9.56
2023-01-11T02:00:54.056Z,9.60
2023-01-11T02:03:27.021Z,9.60
2023-01-11T02:05:54.299Z,9.62
2023-01-11T02:08:34.660Z,9.62
2023-01-11T02:11:03.176Z,9.62
2023-01-11T02:13:30.929Z,9.66
2023-01-11T02:16:09.402Z,9.67
2023-01-11T02:18:37.548Z,9.69
2023-01-11T02:21:13.791Z,9.69
2023-01-11T02:24:06.511Z,9.70
2023-01-11T02:26:55.888Z,9.73
2023-01-11T02:29:47.174Z,9.73
2023-01-11T02:32:32.188Z,9.75
2023-01-11T02:35:21.352Z,9.75
2023-01-11T02:38:08.953Z,9.75
2023-01-11T02:40:53.781Z,9.76
2023-01-11T02:44:08.307Z,9.78
2023-01-11T02:46:40.976Z,9.81
2023-01-11T02:49:30.498Z,9.83
2023-01-11T02:52:06.323Z,9.85
2023-01-11T02:54:34.188Z,9.85
2023-01-11T02:57:04.572Z,9.86
2023-01-11T02:59:34.201Z,9.89
2023-01-11T03:02:03.380Z,9.91
2023-01-11T03:04:34.282Z,9.91
2023-01-11T03:07:28.920Z,9.92
2023-01-11T03:10:02.308Z,9.95
2023-01-11T03:12:55.447Z,9.96
2023-01-11T03:16:01.706Z,9.98
2023-01-11T03:18:54.102Z,9.98
2023-01-11T03:21:58.899Z,9.97
2023-01-11T03:24:45.627Z,9.97
2023-01-11T03:27:22.858Z,9.98
2023-01-11T03:30:19.702Z,10.00
2023-01-11T03:32:56.294Z,10.00
2023-01-11T03:35:46.058Z,10.04
2023-01-11T03:38:15.943Z,10.03
2023-01-11T03:40:57.325Z,10.04
2023-01-11T03:43:26.609Z,10.05
2023-01-11T03:45:58.763Z,10.05
2023-01-11T03:48:38.719Z,10.06
2023-01-11T03:51:11.683Z,10.01
2023-01-11T03:53:39.811Z,10.04
2023-01-11T03:56:12.615Z,10.04
2023-01-11T03:58:41.474Z,10.05
2023-01-11T04:01:09.048Z,10.05
2023-01-11T04:03:36.060Z,10.05
2023-01-11T04:06:03.357Z,10.06
2023-01-11T04:08:31.129Z,10.05
2023-01-11T04:10:57.687Z,10.05
2023-01-11T04:13:24.896Z,10.06
2023-01-11T04:15:55.706Z,10.06
2023-01-11T04:18:22.471Z,10.05
2023-01-11T04:20:51.783Z,10.06
2023-01-11T04:23:18.625Z,10.07
2023-01-11T04:25:45.189Z,10.06
2023-01-11T04:28:11.596Z,10.04
2023-01-11T04:30:38.497Z,10.06
2023-01-11T04:33:04.997Z,10.05
2023-01-11T04:35:32.343Z,10.07
2023-01-11T04:38:00.138Z,10.06
2023-01-11T04:40:27.251Z,10.07
2023-01-11T04:42:54.552Z,10.07
2023-01-11T04:45:26.197Z,10.07
2023-01-11T04:47:57.821Z,10.06
2023-01-11T04:50:26.042Z,10.05
2023-01-11T04:52:53.044Z,10.05
2023-01-11T04:55:20.992Z,10.05
2023-01-11T04:57:48.052Z,10.04
2023-01-11T05:00:24.924Z,10.00
2023-01-11T05:02:51.982Z,10.01
2023-01-11T05:05:19.259Z,10.03
2023-01-11T05:07:50.961Z,10.02
2023-01-11T05:10:20.895Z,10.01
2023-01-11T05:12:48.027Z,9.97
2023-01-11T05:15:15.475Z,9.99
2023-01-11T05:17:41.947Z,9.98
2023-01-11T05:20:11.692Z,9.97
2023-01-11T05:22:38.223Z,9.96
2023-01-11T05:25:05.167Z,9.94
2023-01-11T05:27:31.718Z,9.90
2023-01-11T05:29:58.165Z,9.88
2023-01-11T05:32:24.649Z,9.88
2023-01-11T05:34:52.083Z,9.85
2023-01-11T05:37:20.391Z,9.83
2023-01-11T05:39:47.256Z,9.83
2023-01-11T05:42:14.021Z,9.80
2023-01-11T05:44:59.132Z,9.78
2023-01-11T05:47:25.903Z,9.76
2023-01-11T05:49:52.380Z,9.74
2023-01-11T05:52:19.219Z,9.71
2023-01-11T05:54:46.035Z,9.69
2023-01-11T05:57:12.481Z,9.67
2023-01-11T05:59:38.981Z,9.65
2023-01-11T06:02:05.970Z,9.64
2023-01-11T06:04:32.857Z,9.64
2023-01-11T06:06:59.488Z,9.62
2023-01-11T06:09:26.214Z,9.58
2023-01-11T06:11:54.703Z,9.58
2023-01-11T06:14:21.162Z,9.54
2023-01-11T06:16:47.711Z,9.52
2023-01-11T06:19:14.480Z,9.47
2023-01-11T06:21:41.299Z,9.44
2023-01-11T06:24:08.323Z,9.39
2023-01-11T06:26:34.895Z,9.38
2023-01-11T06:29:01.492Z,9.34
2023-01-11T06:31:27.963Z,9.31
2023-01-11T06:33:54.502Z,9.28
2023-01-11T06:36:21.415Z,9.27
2023-01-11T06:38:47.864Z,9.23
2023-01-11T06:41:16.021Z,9.21
2023-01-11T06:43:42.801Z,9.20
2023-01-11T06:46:14.432Z,9.15
2023-01-11T06:48:42.407Z,9.15
2023-01-11T06:51:14.902Z,9.09
2023-01-11T06:53:43.269Z,9.10
2023-01-11T06:56:13.391Z,9.08
2023-01-11T06:58:40.192Z,9.07
2023-01-11T07:01:10.277Z,9.04
2023-01-11T07:03:41.755Z,9.03
2023-01-11T07:06:09.168Z,9.01
2023-01-11T07:08:38.177Z,9.00
2023-01-11T07:11:13.140Z,8.95
2023-01-11T07:13:43.499Z,8.92
2023-01-11T07:16:10.067Z,8.87
2023-01-11T07:18:37.328Z,8.86
2023-01-11T07:21:05.305Z,8.81
2023-01-11T07:23:31.835Z,8.80
2023-01-11T07:25:58.546Z,8.74
2023-01-11T07:28:25.150Z,8.67
2023-01-11T07:30:58.801Z,8.65
2023-01-11T07:33:26.793Z,8.59
2023-01-11T07:35:53.736Z,8.54
2023-01-11T07:38:20.932Z,8.47
2023-01-11T07:40:47.591Z,8.40
2023-01-11T07:43:19.996Z,8.39
2023-01-11T07:45:49.610Z,8.32
2023-01-11T07:48:22.531Z,8.32
2023-01-11T07:50:49.252Z,8.27
2023-01-11T07:53:16.450Z,8.24
2023-01-11T07:55:50.723Z,8.20
2023-01-11T07:58:17.274Z,8.17
2023-01-11T08:00:45.927Z,8.12
2023-01-11T08:03:12.567Z,8.10
2023-01-11T08:05:39.363Z,8.11
2023-01-11T08:08:07.491Z,8.12
2023-01-11T08:10:34.496Z,8.13
2023-01-11T08:13:19.599Z,8.11
2023-01-11T08:15:46.452Z,8.03
2023-01-11T08:18:14.494Z,7.97
2023-01-11T08:20:41.324Z,7.93
2023-01-11T08:23:11.990Z,7.89
2023-01-11T08:25:44.038Z,7.84
2023-01-11T08:28:11.659Z,7.79
2023-01-11T08:30:39.788Z,7.76
2023-01-11T08:33:06.917Z,7.75
2023-01-11T08:35:38.649Z,7.68
2023-01-11T08:38:06.742Z,7.64
2023-01-11T08:40:34.210Z,7.64
2023-01-11T08:43:01.814Z,7.62
2023-01-11T08:45:30.980Z,7.58
2023-01-11T08:48:01.225Z,7.57
2023-01-11T08:50:27.889Z,7.57
2023-01-11T08:52:54.445Z,7.56
2023-01-11T08:55:20.999Z,7.53
2023-01-11T08:57:50.938Z,7.48
2023-01-11T09:00:19.578Z,7.48
2023-01-11T09:02:46.159Z,7.46
2023-01-11T09:05:13.478Z,7.47
2023-01-11T09:07:41.733Z,7.45
2023-01-11T09:10:10.027Z,7.43
2023-01-11T09:12:38.307Z,7.40
2023-01-11T09:15:06.112Z,7.39
2023-01-11T09:17:34.019Z,7.37
2023-01-11T09:20:00.705Z,7.35
2023-01-11T09:22:27.559Z,7.36
2023-01-11T09:25:00.108Z,7.33
2023-01-11T09:27:27.666Z,7.38
2023-01-11T09:29:56.262Z,7.43
2023-01-11T09:32:24.419Z,7.48
2023-01-11T09:34:53.509Z,7.51
2023-01-11T09:37:22.948Z,7.55
2023-01-11T09:39:52.478Z,7.58
2023-01-11T09:42:35.172Z,7.63
2023-01-11T09:45:16.880Z,7.70
2023-01-11T09:47:49.476Z,7.72
2023-01-11T09:50:31.425Z,7.65
2023-01-11T09:53:09.002Z,7.67
2023-01-11T09:55:40.964Z,7.69
2023-01-11T09:58:42.908Z,7.68
2023-01-11T10:01:38.058Z,7.75
2023-01-11T10:04:28.370Z,7.77
2023-01-11T10:07:24.784Z,7.84
2023-01-11T10:18:39.624Z,8.04
2023-01-11T10:19:39.994Z,8.12
2023-01-11T10:22:12.906Z,8.26
2023-01-11T10:24:47.295Z,8.38
2023-01-11T10:27:36.924Z,8.50
2023-01-11T10:30:33.879Z,8.56
2023-01-11T10:33:25.628Z,8.56
2023-01-11T10:36:18.305Z,8.59
2023-01-11T10:38:56.729Z,8.62
2023-01-11T10:41:37.724Z,8.63
2023-01-11T10:44:10.604Z,8.61
2023-01-11T10:46:43.482Z,8.60
2023-01-11T10:49:33.796Z,8.58
2023-01-11T10:52:20.031Z,8.49
2023-01-11T10:54:51.077Z,8.50
2023-01-11T10:58:00.281Z,8.49
2023-01-11T11:00:49.032Z,8.58
2023-01-11T11:03:38.869Z,8.65
2023-01-11T11:06:19.566Z,8.63
2023-01-11T11:08:56.226Z,8.64
2023-01-11T11:11:35.342Z,8.70
2023-01-11T11:14:10.365Z,8.69
2023-01-11T11:16:44.014Z,8.70
2023-01-11T11:19:16.086Z,8.78
2023-01-11T11:21:43.436Z,8.86
2023-01-11T11:24:44.119Z,8.88
2023-01-11T11:27:20.968Z,8.97
2023-01-11T11:29:53.205Z,9.03
2023-01-11T11:32:44.223Z,9.02
2023-01-11T11:35:40.715Z,9.06
2023-01-11T11:38:19.384Z,9.01
2023-01-11T11:41:03.910Z,9.04
2023-01-11T11:43:34.853Z,9.01
2023-01-11T11:46:02.732Z,8.97
2023-01-11T11:48:32.084Z,9.04
2023-01-11T11:51:05.382Z,9.17
2023-01-11T11:53:48.150Z,9.19
2023-01-11T11:56:31.591Z,9.16
2023-01-11T11:59:01.781Z,9.11
2023-01-11T12:01:40.020Z,9.04
2023-01-11T12:04:19.780Z,8.88
2023-01-11T12:07:22.183Z,8.80
2023-01-11T12:09:57.942Z,8.84
2023-01-11T12:12:27.862Z,8.85
2023-01-11T12:15:08.257Z,8.93
2023-01-11T12:17:35.335Z,8.94
2023-01-11T12:20:01.924Z,8.89
2023-01-11T12:22:29.269Z,8.82
2023-01-11T12:25:08.048Z,8.92
2023-01-11T12:27:53.831Z,8.99
2023-01-11T12:30:31.075Z,9.08
2023-01-11T12:33:27.817Z,9.08
2023-01-11T12:36:13.229Z,9.20
2023-01-11T12:38:51.154Z,9.26
2023-01-11T12:41:50.253Z,9.24
2023-01-11T12:44:44.282Z,9.17
2023-01-11T12:47:22.036Z,9.10
2023-01-11T12:50:16.761Z,8.99
2023-01-11T12:53:18.606Z,8.89
2023-01-11T12:56:16.670Z,8.84
2023-01-11T12:59:04.736Z,8.77
2023-01-11T13:01:41.968Z,8.78
2023-01-11T13:04:32.963Z,8.77
2023-01-11T13:07:16.666Z,8.84
2023-01-11T13:10:17.360Z,8.93
2023-01-11T13:13:06.296Z,8.94
2023-01-11T13:15:53.613Z,8.91
2023-01-11T13:18:44.849Z,8.90
2023-01-11T13:21:17.461Z,8.75
2023-01-11T13:23:54.912Z,8.65
2023-01-11T13:26:40.400Z,8.59
2023-01-11T13:29:14.713Z,8.57
2023-01-11T13:31:45.583Z,8.65
2023-01-11T13:34:18.923Z,8.70
2023-01-11T13:36:53.481Z,8.76
2023-01-11T13:39:36.220Z,8.95
2023-01-11T13:42:07.972Z,9.04
2023-01-11T13:44:49.551Z,9.03
2023-01-11T13:47:34.595Z,9.01
2023-01-11T13:50:16.845Z,9.02
2023-01-11T13:53:06.183Z,9.02
2023-01-11T13:55:58.506Z,8.99
2023-01-11T13:58:37.052Z,8.92
2023-01-11T14:01:21.391Z,8.88
2023-01-11T14:04:01.092Z,8.78
2023-01-11T14:06:45.020Z,8.70
2023-01-11T14:09:43.465Z,8.65
2023-01-11T14:12:35.077Z,8.68
2023-01-11T14:15:26.865Z,8.62
2023-01-11T14:18:14.251Z,8.57
2023-01-11T14:20:48.374Z,8.55
2023-01-11T14:23:20.506Z,8.47
2023-01-11T14:25:46.955Z,8.42
2023-01-11T14:28:27.841Z,8.35
2023-01-11T14:31:00.324Z,8.34
2023-01-11T14:33:35.911Z,8.34
2023-01-11T14:36:11.010Z,8.31
2023-01-11T14:38:58.046Z,8.29
2023-01-11T14:41:46.170Z,8.22
2023-01-11T14:44:24.995Z,8.19
2023-01-11T14:47:38.866Z,8.12
2023-01-11T14:50:10.930Z,8.07
2023-01-11T14:52:41.901Z,8.02
2023-01-11T14:55:18.879Z,7.99
2023-01-11T14:58:02.950Z,7.93
2023-01-11T15:00:29.379Z,7.90
2023-01-11T15:03:02.999Z,7.90
2023-01-11T15:05:38.005Z,7.86
2023-01-11T15:08:13.285Z,7.80
2023-01-11T15:10:50.451Z,7.74
2023-01-11T15:13:33.621Z,7.71
2023-01-11T15:16:38.115Z,7.64
2023-01-11T15:19:08.050Z,7.66
2023-01-11T15:21:49.721Z,7.67
2023-01-11T15:24:43.098Z,7.64
2023-01-11T15:27:36.685Z,7.62
2023-01-11T15:30:06.340Z,7.59
2023-01-11T15:32:34.875Z,7.60
2023-01-11T15:35:22.760Z,7.62
2023-01-11T15:38:02.543Z,7.63
2023-01-11T15:40:34.519Z,7.61
2023-01-11T15:43:20.571Z,7.55
2023-01-11T15:46:44.218Z,7.54
2023-01-11T15:49:48.267Z,7.47
2023-01-11T15:52:50.922Z,7.45
2023-01-11T15:55:52.207Z,7.43
2023-01-11T15:58:48.675Z,7.39
2023-01-11T16:01:30.818Z,7.37
2023-01-11T16:04:24.035Z,7.36
2023-01-11T16:06:50.598Z,7.37
2023-01-11T16:09:42.156Z,7.40
2023-01-11T16:12:46.671Z,7.46
2023-01-11T16:15:31.938Z,7.48
2023-01-11T16:18:10.932Z,7.52
2023-01-11T16:20:38.090Z,7.54
2023-01-11T16:23:06.030Z,7.48
2023-01-11T16:25:38.887Z,7.42
2023-01-11T16:28:06.323Z,7.35
2023-01-11T16:30:33.895Z,7.30
2023-01-11T16:33:21.444Z,7.31
2023-01-11T16:35:48.395Z,7.30
2023-01-11T16:38:20.730Z,7.29
2023-01-11T16:40:53.517Z,7.26
2023-01-11T16:43:25.382Z,7.24
2023-01-11T16:45:56.464Z,7.21
2023-01-11T16:48:27.363Z,7.17
2023-01-11T16:51:16.479Z,7.14
2023-01-11T16:53:53.436Z,7.15
2023-01-11T16:56:22.571Z,7.17
2023-01-11T16:59:30.551Z,7.15
2023-01-11T17:01:59.983Z,7.17
2023-01-11T17:04:51.028Z,7.20
2023-01-11T17:07:21.855Z,7.27
2023-01-11T17:09:48.538Z,7.28
2023-01-11T17:12:25.165Z,7.30
2023-01-11T17:14:51.689Z,7.29
2023-01-11T17:17:18.594Z,7.27
2023-01-11T17:19:50.574Z,7.26
2023-01-11T17:22:18.989Z,7.28
2023-01-11T17:25:15.735Z,7.31
2023-01-11T17:27:51.079Z,7.33
2023-01-11T17:30:21.538Z,7.37
2023-01-11T17:32:52.100Z,7.39
2023-01-11T17:35:24.355Z,7.40
2023-01-11T17:37:54.923Z,7.44
2023-01-11T17:40:23.501Z,7.44
2023-01-11T17:43:10.771Z,7.43
2023-01-11T17:45:39.423Z,7.47
2023-01-11T17:48:12.753Z,7.54
2023-01-11T17:50:53.962Z,7.57
2023-01-11T17:53:27.053Z,7.59
2023-01-11T17:56:01.053Z,7.61
2023-01-11T17:58:37.609Z,7.59
2023-01-11T18:01:16.321Z,7.54
2023-01-11T18:03:57.885Z,7.54
2023-01-11T18:06:44.995Z,7.59
2023-01-11T18:09:26.429Z,7.66
2023-01-11T18:11:54.154Z,7.67
2023-01-11T18:14:25.382Z,7.68
2023-01-11T18:17:04.155Z,7.69
2023-01-11T18:19:48.895Z,7.73
2023-01-11T18:22:27.247Z,7.80
2023-01-11T18:24:55.242Z,7.80
2023-01-11T18:27:30.453Z,7.76
2023-01-11T18:29:59.990Z,7.70
2023-01-11T18:32:29.707Z,7.66
2023-01-11T18:34:58.519Z,7.63
2023-01-11T18:37:29.249Z,7.59
2023-01-11T18:39:55.671Z,7.58
2023-01-11T18:42:28.507Z,7.57
2023-01-11T18:44:55.355Z,7.58
2023-01-11T18:47:28.455Z,7.54
2023-01-11T18:49:55.620Z,7.50
2023-01-11T18:52:27.703Z,7.48
2023-01-11T18:54:58.658Z,7.44
2023-01-11T18:57:25.772Z,7.45
2023-01-11T18:59:53.033Z,7.44
2023-01-11T19:02:42.461Z,7.43
2023-01-11T19:05:18.694Z,7.44
2023-01-11T19:07:46.503Z,7.45
2023-01-11T19:10:24.379Z,7.46
2023-01-11T19:12:51.144Z,7.46
2023-01-11T19:15:19.261Z,7.43
2023-01-11T19:17:45.930Z,7.42
2023-01-11T19:20:14.734Z,7.41
2023-01-11T19:22:41.869Z,7.39
2023-01-11T19:25:10.321Z,7.38
2023-01-11T19:27:37.931Z,7.40
2023-01-11T19:30:11.282Z,7.39
2023-01-11T19:32:38.008Z,7.36
2023-01-11T19:35:05.938Z,7.36
2023-01-11T19:37:34.915Z,7.35
2023-01-11T19:40:01.456Z,7.31
2023-01-11T19:42:32.444Z,7.29
2023-01-11T19:45:00.245Z,7.28
2023-01-11T19:47:29.853Z,7.26
2023-01-11T19:50:00.895Z,7.22
2023-01-11T19:52:29.967Z,7.22
2023-01-11T19:55:00.060Z,7.21
2023-01-11T19:57:27.550Z,7.20
2023-01-11T19:59:54.160Z,7.15
2023-01-11T20:02:22.294Z,7.09
2023-01-11T20:04:49.011Z,7.02
2023-01-11T20:07:21.825Z,6.98
2023-01-11T20:09:48.987Z,6.92
2023-01-11T20:12:25.808Z,6.88
2023-01-11T20:14:57.585Z,6.85
2023-01-11T20:17:25.022Z,6.86
2023-01-11T20:20:01.830Z,6.84
2023-01-11T20:22:28.851Z,6.83
2023-01-11T20:25:08.320Z,6.85
2023-01-11T20:30:15.578Z,6.88
2023-01-11T20:32:42.597Z,6.89
2023-01-11T20:35:12.408Z,6.86
2023-01-11T20:37:39.071Z,6.86
2023-01-11T20:40:08.838Z,6.85
2023-01-11T20:42:38.456Z,6.80
2023-01-11T20:45:11.393Z,6.83
2023-01-11T20:47:38.048Z,6.84
2023-01-11T20:50:04.853Z,6.81
2023-01-11T20:52:31.481Z,6.85
2023-01-11T20:54:59.439Z,6.86
2023-01-11T20:57:29.320Z,6.87
2023-01-11T20:59:56.435Z,6.87
2023-01-11T21:02:22.945Z,6.85
2023-01-11T21:04:53.712Z,6.88
2023-01-11T21:07:21.304Z,6.89
2023-01-11T21:09:48.938Z,6.91
2023-01-11T21:12:17.784Z,6.90
2023-01-11T21:14:50.547Z,6.91
2023-01-11T21:17:18.766Z,6.89
2023-01-11T21:19:46.541Z,6.91
2023-01-11T21:22:13.570Z,6.92
2023-01-11T21:24:41.834Z,6.91
2023-01-11T21:27:22.758Z,6.92
2023-01-11T21:29:53.935Z,6.93
2023-01-11T21:32:47.229Z,6.91
2023-01-11T21:35:35.214Z,6.91
2023-01-11T21:38:02.167Z,6.91
2023-01-11T21:40:30.540Z,6.92
2023-01-11T21:42:59.208Z,6.93
2023-01-11T21:45:28.367Z,6.93
2023-01-11T21:47:54.799Z,6.99
2023-01-11T21:50:22.787Z,6.98
2023-01-11T21:52:54.188Z,6.98
2023-01-11T21:55:21.027Z,6.99
2023-01-11T21:57:47.652Z,7.01
2023-01-11T22:00:18.290Z,7.02
2023-01-11T22:02:45.496Z,7.04
2023-01-11T22:05:15.129Z,7.06
2023-01-11T22:07:43.988Z,7.08
2023-01-11T22:10:10.727Z,7.12
2023-01-11T22:12:37.180Z,7.15
2023-01-11T22:15:06.922Z,7.16
2023-01-11T22:17:42.124Z,7.16
2023-01-11T22:20:10.959Z,7.19
2023-01-11T22:22:38.749Z,7.23
2023-01-11T22:25:11.277Z,7.25
2023-01-11T22:27:39.678Z,7.26
2023-01-11T22:30:06.813Z,7.27
2023-01-11T22:32:33.762Z,7.29
2023-01-11T22:35:01.278Z,7.27
2023-01-11T22:37:27.790Z,7.29
2023-01-11T22:39:54.540Z,7.29
2023-01-11T22:42:22.540Z,7.28
2023-01-11T22:44:49.733Z,7.30
2023-01-11T22:47:16.317Z,7.28
2023-01-11T22:49:43.128Z,7.29
2023-01-11T22:52:10.024Z,7.28
2023-01-11T22:54:36.581Z,7.31
2023-01-11T22:57:03.585Z,7.28
2023-01-11T22:59:30.833Z,7.30
2023-01-11T23:01:57.604Z,7.31
2023-01-11T23:04:24.245Z,7.30
2023-01-11T23:06:50.765Z,7.29
2023-01-11T23:09:17.935Z,7.33
2023-01-11T23:12:03.611Z,7.35
2023-01-11T23:14:32.813Z,7.34
2023-01-11T23:17:08.912Z,7.33
2023-01-11T23:19:40.250Z,7.33
2023-01-11T23:22:08.020Z,7.34
2023-01-11T23:24:35.792Z,7.36
2023-01-11T23:27:05.048Z,7.38
2023-01-11T23:29:36.601Z,7.39
2023-01-11T23:32:04.184Z,7.40
2023-01-11T23:34:31.970Z,7.40
2023-01-11T23:36:58.503Z,7.41
2023-01-11T23:39:26.174Z,7.42
2023-01-11T23:42:12.594Z,7.45
2023-01-11T23:44:41.246Z,7.46
2023-01-11T23:47:22.988Z,7.47
2023-01-11T23:49:52.165Z,7.50
2023-01-11T23:52:20.953Z,7.50
2023-01-11T23:54:47.593Z,7.52
2023-01-11T23:57:15.178Z,7.54
2023-01-11T23:59:45.628Z,7.53
